createdAt,value
2019-05-18T00:00:50.808Z,1001.15
2019-05-18T00:01:50.808Z,1001.14
2019-05-18T00:02:50.998Z,1001.12
2019-05-18T00:03:50.670Z,1001.14
2019-05-18T00:04:50.686Z,1001.13
2019-05-18T00:05:50.607Z,1001.11
2019-05-18T00:06:50.675Z,1001.10
2019-05-18T00:08:50.739Z,1001.08
2019-05-18T00:10:51.144Z,1001.09
2019-05-18T00:11:50.689Z,1001.03
2019-05-18T00:12:50.770Z,1001.06
2019-05-18T00:13:50.729Z,1001.06
2019-05-18T00:14:50.734Z,1001.04
2019-05-18T00:15:51.551Z,1001.05
2019-05-18T00:16:50.879Z,1001.08
2019-05-18T00:17:51.649Z,1001.08
2019-05-18T00:18:50.849Z,1001.12
2019-05-18T00:19:52.009Z,1001.07
2019-05-18T00:20:50.806Z,1001.13
2019-05-18T00:21:50.829Z,1001.10
2019-05-18T00:22:52.779Z,1001.10
2019-05-18T00:23:50.848Z,1001.09
2019-05-18T00:25:51.353Z,1001.14
2019-05-18T00:26:51.088Z,1001.14
2019-05-18T00:27:50.907Z,1001.10
2019-05-18T00:28:51.173Z,1001.09
2019-05-18T00:29:51.121Z,1001.07
2019-05-18T00:30:51.038Z,1001.15
2019-05-18T00:31:51.873Z,1001.09
2019-05-18T00:33:51.277Z,1001.12
2019-05-18T00:36:51.963Z,1001.03
2019-05-18T00:38:51.414Z,1001.07
2019-05-18T00:39:51.205Z,1001.02
2019-05-18T00:40:51.346Z,1001.03
2019-05-18T00:41:51.118Z,1001.02
2019-05-18T00:43:51.105Z,1000.99
2019-05-18T00:46:51.980Z,1001.01
2019-05-18T00:47:54.616Z,1001.03
2019-05-18T00:48:51.163Z,1001.03
2019-05-18T00:49:51.328Z,1001.06
2019-05-18T00:50:51.260Z,1001.02
2019-05-18T00:52:52.361Z,1001.05
2019-05-18T00:53:51.911Z,1001.08
2019-05-18T00:54:51.247Z,1001.03
2019-05-18T00:55:51.335Z,1001.04
2019-05-18T00:56:51.330Z,1000.97
2019-05-18T00:57:51.318Z,1000.99
2019-05-18T00:58:51.393Z,1000.97
2019-05-18T00:59:51.310Z,1000.96
2019-05-18T01:00:51.335Z,1000.96
2019-05-18T01:01:51.341Z,1000.97
2019-05-18T01:02:51.357Z,1000.96
2019-05-18T01:03:51.360Z,1000.93
2019-05-18T01:04:51.462Z,1000.95
2019-05-18T01:05:51.390Z,1000.90
2019-05-18T01:06:51.396Z,1000.89
2019-05-18T01:08:51.483Z,1000.92
2019-05-18T01:09:51.431Z,1000.93
2019-05-18T01:10:51.528Z,1000.91
2019-05-18T01:11:51.604Z,1000.91
2019-05-18T01:12:51.508Z,1000.91
2019-05-18T01:13:51.498Z,1000.93
2019-05-18T01:14:51.527Z,1000.93
2019-05-18T01:15:51.569Z,1000.89
2019-05-18T01:16:51.536Z,1000.92
2019-05-18T01:17:57.451Z,1000.89
2019-05-18T01:18:51.924Z,1000.87
2019-05-18T01:19:52.123Z,1000.87
2019-05-18T01:20:51.573Z,1000.89
2019-05-18T01:22:51.853Z,1000.90
2019-05-18T01:24:52.541Z,1000.88
2019-05-18T01:25:52.041Z,1000.90
2019-05-18T01:26:51.807Z,1000.89
2019-05-18T01:27:51.757Z,1000.87
2019-05-18T01:28:52.459Z,1000.85
2019-05-18T01:29:51.810Z,1000.84
2019-05-18T01:30:51.724Z,1000.88
2019-05-18T01:31:51.765Z,1000.86
2019-05-18T01:32:51.867Z,1000.88
2019-05-18T01:33:51.810Z,1000.86
2019-05-18T01:34:52.063Z,1000.87
2019-05-18T01:36:51.791Z,1000.83
2019-05-18T01:37:51.798Z,1000.80
2019-05-18T01:38:51.916Z,1000.77
2019-05-18T01:39:51.879Z,1000.79
2019-05-18T01:40:53.023Z,1000.80
2019-05-18T01:41:51.970Z,1000.77
2019-05-18T01:43:52.480Z,1000.76
2019-05-18T01:44:52.075Z,1000.76
2019-05-18T01:45:51.893Z,1000.77
2019-05-18T01:46:51.944Z,1000.80
2019-05-18T01:47:52.142Z,1000.82
2019-05-18T01:48:51.949Z,1000.79
2019-05-18T01:50:52.062Z,1000.80
2019-05-18T01:51:52.281Z,1000.78
2019-05-18T01:53:52.149Z,1000.79
2019-05-18T01:55:52.184Z,1000.81
2019-05-18T01:56:52.051Z,1000.79
2019-05-18T01:57:52.045Z,1000.79
2019-05-18T01:59:52.621Z,1000.81
2019-05-18T02:00:52.091Z,1000.81
2019-05-18T02:01:52.728Z,1000.80
2019-05-18T02:02:52.114Z,1000.84
2019-05-18T02:03:52.138Z,1000.89
2019-05-18T02:04:52.192Z,1000.87
2019-05-18T02:05:52.540Z,1000.88
2019-05-18T02:06:52.202Z,1000.86
2019-05-18T02:07:52.180Z,1000.90
2019-05-18T02:08:52.268Z,1000.88
2019-05-18T02:09:52.466Z,1000.85
2019-05-18T02:10:52.459Z,1000.88
2019-05-18T02:11:52.701Z,1000.86
2019-05-18T02:12:52.439Z,1000.91
2019-05-18T02:13:52.486Z,1000.86
2019-05-18T02:14:52.401Z,1000.81
2019-05-18T02:15:52.286Z,1000.84
2019-05-18T02:16:52.406Z,1000.78
2019-05-18T02:17:52.496Z,1000.82
2019-05-18T02:18:52.470Z,1000.83
2019-05-18T02:19:52.331Z,1000.82
2019-05-18T02:20:52.354Z,1000.83
2019-05-18T02:21:52.589Z,1000.84
2019-05-18T02:22:52.691Z,1000.86
2019-05-18T02:23:52.448Z,1000.83
2019-05-18T02:25:52.461Z,1000.86
2019-05-18T02:26:52.453Z,1000.84
2019-05-18T02:27:52.430Z,1000.86
2019-05-18T02:28:52.574Z,1000.84
2019-05-18T02:30:52.650Z,1000.86
2019-05-18T02:32:52.845Z,1000.81
2019-05-18T02:33:52.499Z,1000.81
2019-05-18T02:34:52.520Z,1000.84
2019-05-18T02:35:52.548Z,1000.78
2019-05-18T02:37:52.762Z,1000.76
2019-05-18T02:38:52.578Z,1000.77
2019-05-18T02:39:53.049Z,1000.77
2019-05-18T02:41:53.026Z,1000.76
2019-05-18T02:42:53.133Z,1000.78
2019-05-18T02:43:53.031Z,1000.75
2019-05-18T02:44:52.995Z,1000.83
2019-05-18T02:45:53.030Z,1000.75
2019-05-18T02:46:52.696Z,1000.84
2019-05-18T02:47:52.778Z,1000.82
2019-05-18T02:49:52.836Z,1000.81
2019-05-18T02:50:53.019Z,1000.81
2019-05-18T02:51:52.770Z,1000.81
2019-05-18T02:53:52.788Z,1000.80
2019-05-18T02:55:52.988Z,1000.80
2019-05-18T02:56:52.829Z,1000.76
2019-05-18T02:59:53.725Z,1000.73
2019-05-18T03:00:53.102Z,1000.74
2019-05-18T03:02:52.928Z,1000.69
2019-05-18T03:03:53.222Z,1000.71
2019-05-18T03:04:53.038Z,1000.68
2019-05-18T03:05:53.003Z,1000.67
2019-05-18T03:06:52.936Z,1000.69
2019-05-18T03:07:53.117Z,1000.70
2019-05-18T03:08:53.607Z,1000.68
2019-05-18T03:10:53.790Z,1000.71
2019-05-18T03:11:54.003Z,1000.72
2019-05-18T03:12:55.302Z,1000.69
2019-05-18T03:13:54.388Z,1000.70
2019-05-18T03:14:54.330Z,1000.72
2019-05-18T03:16:54.559Z,1000.73
2019-05-18T03:17:55.116Z,1000.72
2019-05-18T03:19:07.356Z,1000.73
2019-05-18T03:19:53.086Z,1000.70
2019-05-18T03:20:53.147Z,1000.69
2019-05-18T03:22:53.792Z,1000.65
2019-05-18T03:23:53.282Z,1000.67
2019-05-18T03:24:53.962Z,1000.66
2019-05-18T03:25:54.220Z,1000.64
2019-05-18T03:26:53.172Z,1000.64
2019-05-18T03:30:54.337Z,1000.68
2019-05-18T03:31:53.301Z,1000.69
2019-05-18T03:32:53.427Z,1000.67
2019-05-18T03:33:53.337Z,1000.67
2019-05-18T03:34:53.277Z,1000.68
2019-05-18T03:36:53.438Z,1000.67
2019-05-18T03:37:53.345Z,1000.65
2019-05-18T03:39:53.354Z,1000.70
2019-05-18T03:40:53.399Z,1000.68
2019-05-18T03:41:53.593Z,1000.72
2019-05-18T03:42:54.129Z,1000.71
2019-05-18T03:44:53.709Z,1000.71
2019-05-18T03:45:53.431Z,1000.74
2019-05-18T03:47:53.430Z,1000.74
2019-05-18T03:48:53.444Z,1000.73
2019-05-18T03:50:53.472Z,1000.72
2019-05-18T03:51:53.882Z,1000.69
2019-05-18T03:52:54.132Z,1000.70
2019-05-18T03:53:54.493Z,1000.67
2019-05-18T03:54:54.771Z,1000.70
2019-05-18T03:55:53.519Z,1000.68
2019-05-18T03:56:53.644Z,1000.63
2019-05-18T03:57:55.143Z,1000.66
2019-05-18T03:58:54.921Z,1000.64
2019-05-18T03:59:55.007Z,1000.69
2019-05-18T04:00:53.686Z,1000.66
2019-05-18T04:01:54.221Z,1000.71
2019-05-18T04:02:54.346Z,1000.69
2019-05-18T04:03:54.518Z,1000.65
2019-05-18T04:04:53.704Z,1000.69
2019-05-18T04:05:54.374Z,1000.64
2019-05-18T04:06:53.668Z,1000.68
2019-05-18T04:07:53.679Z,1000.69
2019-05-18T04:09:53.981Z,1000.67
2019-05-18T04:10:53.977Z,1000.69
2019-05-18T04:11:53.740Z,1000.71
2019-05-18T04:12:53.743Z,1000.65
2019-05-18T04:13:54.429Z,1000.65
2019-05-18T04:14:55.407Z,1000.66
2019-05-18T04:16:53.964Z,1000.68
2019-05-18T04:17:53.794Z,1000.71
2019-05-18T04:18:54.240Z,1000.68
2019-05-18T04:20:54.224Z,1000.65
2019-05-18T04:21:53.889Z,1000.64
2019-05-18T04:22:54.137Z,1000.68
2019-05-18T04:23:53.963Z,1000.65
2019-05-18T04:24:55.108Z,1000.67
2019-05-18T04:27:53.993Z,1000.66
2019-05-18T04:30:55.681Z,1000.59
2019-05-18T04:31:54.532Z,1000.60
2019-05-18T04:32:54.198Z,1000.60
2019-05-18T04:33:54.027Z,1000.61
2019-05-18T04:34:55.424Z,1000.64
2019-05-18T04:35:54.115Z,1000.64
2019-05-18T04:36:54.237Z,1000.65
2019-05-18T04:37:54.072Z,1000.64
2019-05-18T04:38:54.080Z,1000.66
2019-05-18T04:39:54.089Z,1000.66
2019-05-18T04:40:54.727Z,1000.65
2019-05-18T04:41:54.580Z,1000.65
2019-05-18T04:42:54.165Z,1000.66
2019-05-18T04:43:54.367Z,1000.65
2019-05-18T04:44:54.129Z,1000.67
2019-05-18T04:45:54.240Z,1000.67
2019-05-18T04:46:54.193Z,1000.67
2019-05-18T04:47:54.380Z,1000.68
2019-05-18T04:48:54.962Z,1000.63
2019-05-18T04:50:05.000Z,1000.69
2019-05-18T04:50:54.888Z,1000.68
2019-05-18T04:52:56.316Z,1000.66
2019-05-18T04:54:56.206Z,1000.60
2019-05-18T04:55:55.776Z,1000.63
2019-05-18T04:56:54.425Z,1000.61
2019-05-18T04:57:56.100Z,1000.61
2019-05-18T04:58:54.317Z,1000.67
2019-05-18T04:59:54.452Z,1000.64
2019-05-18T05:00:54.445Z,1000.63
2019-05-18T05:01:54.341Z,1000.67
2019-05-18T05:02:54.369Z,1000.68
2019-05-18T05:03:54.436Z,1000.69
2019-05-18T05:04:56.728Z,1000.72
2019-05-18T05:05:55.107Z,1000.73
2019-05-18T05:06:55.847Z,1000.79
2019-05-18T05:07:54.508Z,1000.77
2019-05-18T05:08:54.520Z,1000.77
2019-05-18T05:10:54.735Z,1000.78
2019-05-18T05:12:54.533Z,1000.80
2019-05-18T05:13:54.569Z,1000.79
2019-05-18T05:15:54.563Z,1000.80
2019-05-18T05:16:55.488Z,1000.80
2019-05-18T05:17:54.693Z,1000.79
2019-05-18T05:18:54.627Z,1000.76
2019-05-18T05:19:55.583Z,1000.75
2019-05-18T05:20:54.599Z,1000.73
2019-05-18T05:21:54.688Z,1000.74
2019-05-18T05:23:54.608Z,1000.75
2019-05-18T05:24:55.169Z,1000.75
2019-05-18T05:25:55.016Z,1000.73
2019-05-18T05:26:54.802Z,1000.80
2019-05-18T05:27:54.784Z,1000.77
2019-05-18T05:29:55.402Z,1000.85
2019-05-18T05:30:54.967Z,1000.80
2019-05-18T05:31:54.723Z,1000.84
2019-05-18T05:32:54.789Z,1000.82
2019-05-18T05:33:54.739Z,1000.82
2019-05-18T05:34:54.765Z,1000.84
2019-05-18T05:35:54.764Z,1000.77
2019-05-18T05:36:54.774Z,1000.80
2019-05-18T05:37:54.822Z,1000.82
2019-05-18T05:38:54.828Z,1000.84
2019-05-18T05:40:55.070Z,1000.77
2019-05-18T05:42:56.067Z,1000.81
2019-05-18T05:43:55.095Z,1000.82
2019-05-18T05:44:54.879Z,1000.82
2019-05-18T05:45:54.892Z,1000.82
2019-05-18T05:46:55.062Z,1000.81
2019-05-18T05:47:55.986Z,1000.82
2019-05-18T05:48:54.941Z,1000.86
2019-05-18T05:50:55.359Z,1000.81
2019-05-18T05:51:55.024Z,1000.80
2019-05-18T05:52:55.291Z,1000.84
2019-05-18T05:53:55.211Z,1000.87
2019-05-18T05:54:55.072Z,1000.86
2019-05-18T05:55:55.180Z,1000.86
2019-05-18T05:56:55.039Z,1000.87
2019-05-18T05:57:55.162Z,1000.84
2019-05-18T05:58:55.069Z,1000.89
2019-05-18T05:59:55.369Z,1000.87
2019-05-18T06:00:55.188Z,1000.85
2019-05-18T06:02:55.704Z,1000.88
2019-05-18T06:03:55.545Z,1000.88
2019-05-18T06:04:55.156Z,1000.88
2019-05-18T06:05:55.649Z,1000.87
2019-05-18T06:06:55.165Z,1000.89
2019-05-18T06:07:55.182Z,1000.91
2019-05-18T06:08:55.738Z,1000.89
2019-05-18T06:09:55.598Z,1000.93
2019-05-18T06:10:55.225Z,1000.95
2019-05-18T06:11:55.589Z,1000.97
2019-05-18T06:13:55.837Z,1001.03
2019-05-18T06:14:55.296Z,1001.02
2019-05-18T06:15:56.185Z,1001.05
2019-05-18T06:16:55.406Z,1000.98
2019-05-18T06:17:55.310Z,1001.01
2019-05-18T06:18:55.339Z,1001.02
2019-05-18T06:19:55.357Z,1001.02
2019-05-18T06:20:55.350Z,1001.07
2019-05-18T06:21:55.576Z,1001.03
2019-05-18T06:22:55.418Z,1001.00
2019-05-18T06:23:55.857Z,1001.03
2019-05-18T06:24:56.093Z,1001.03
2019-05-18T06:25:55.422Z,1001.01
2019-05-18T06:26:55.500Z,1001.05
2019-05-18T06:27:55.443Z,1001.03
2019-05-18T06:28:55.459Z,1001.02
2019-05-18T06:29:55.475Z,1001.01
2019-05-18T06:30:55.522Z,1000.99
2019-05-18T06:31:55.503Z,1001.00
2019-05-18T06:33:55.653Z,1001.01
2019-05-18T06:34:55.537Z,1001.00
2019-05-18T06:35:55.984Z,1001.02
2019-05-18T06:36:56.072Z,1001.04
2019-05-18T06:37:55.574Z,1001.08
2019-05-18T06:38:55.588Z,1001.05
2019-05-18T06:39:55.610Z,1001.07
2019-05-18T06:40:55.622Z,1001.11
2019-05-18T06:41:55.711Z,1001.10
2019-05-18T06:42:55.731Z,1001.07
2019-05-18T06:43:58.487Z,1001.07
2019-05-18T06:44:55.978Z,1001.10
2019-05-18T06:46:55.699Z,1001.11
2019-05-18T06:47:55.870Z,1001.13
2019-05-18T06:48:55.728Z,1001.10
2019-05-18T06:49:55.755Z,1001.11
2019-05-18T06:51:06.828Z,1001.11
2019-05-18T06:51:56.140Z,1001.12
2019-05-18T06:52:55.776Z,1001.12
2019-05-18T06:53:55.789Z,1001.10
2019-05-18T06:54:55.807Z,1001.07
2019-05-18T06:55:55.821Z,1001.10
2019-05-18T06:56:55.832Z,1001.12
2019-05-18T06:57:56.687Z,1001.11
2019-05-18T06:58:55.888Z,1001.12
2019-05-18T06:59:55.903Z,1001.12
2019-05-18T07:00:55.947Z,1001.14
2019-05-18T07:01:56.130Z,1001.13
2019-05-18T07:02:56.385Z,1001.18
2019-05-18T07:03:55.994Z,1001.19
2019-05-18T07:04:55.963Z,1001.17
2019-05-18T07:05:56.519Z,1001.18
2019-05-18T07:06:56.025Z,1001.14
2019-05-18T07:07:55.982Z,1001.18
2019-05-18T07:08:56.000Z,1001.18
2019-05-18T07:09:56.016Z,1001.16
2019-05-18T07:10:56.908Z,1001.16
2019-05-18T07:11:56.333Z,1001.16
2019-05-18T07:12:56.087Z,1001.18
2019-05-18T07:13:56.119Z,1001.17
2019-05-18T07:14:56.094Z,1001.17
2019-05-18T07:15:56.327Z,1001.17
2019-05-18T07:16:56.507Z,1001.14
2019-05-18T07:17:56.122Z,1001.15
2019-05-18T07:19:57.430Z,1001.17
2019-05-18T07:20:56.479Z,1001.17
2019-05-18T07:21:56.175Z,1001.18
2019-05-18T07:22:56.269Z,1001.19
2019-05-18T07:23:56.251Z,1001.19
2019-05-18T07:24:56.935Z,1001.20
2019-05-18T07:25:56.421Z,1001.14
2019-05-18T07:26:56.248Z,1001.17
2019-05-18T07:27:56.721Z,1001.18
2019-05-18T07:29:56.653Z,1001.16
2019-05-18T07:30:56.739Z,1001.18
2019-05-18T07:31:56.321Z,1001.17
2019-05-18T07:32:56.332Z,1001.12
2019-05-18T07:34:57.328Z,1001.12
2019-05-18T07:35:56.636Z,1001.14
2019-05-18T07:36:56.388Z,1001.17
2019-05-18T07:37:56.679Z,1001.15
2019-05-18T07:39:56.447Z,1001.13
2019-05-18T07:40:56.458Z,1001.11
2019-05-18T07:41:56.462Z,1001.05
2019-05-18T07:42:56.573Z,1001.03
2019-05-18T07:43:56.489Z,1001.04
2019-05-18T07:44:56.501Z,1001.02
2019-05-18T07:46:57.617Z,1000.98
2019-05-18T07:47:57.149Z,1000.98
2019-05-18T07:48:58.643Z,1001.00
2019-05-18T07:50:56.943Z,1001.00
2019-05-18T07:52:57.949Z,1001.01
2019-05-18T07:54:56.639Z,1001.00
2019-05-18T07:55:56.675Z,1001.00
2019-05-18T07:56:56.704Z,1001.02
2019-05-18T07:57:56.760Z,1001.02
2019-05-18T07:58:56.701Z,1001.05
2019-05-18T07:59:56.781Z,1001.07
2019-05-18T08:00:56.731Z,1001.06
2019-05-18T08:01:58.500Z,1001.04
2019-05-18T08:03:56.874Z,1001.04
2019-05-18T08:04:56.863Z,1001.03
2019-05-18T08:05:56.865Z,1001.05
2019-05-18T08:06:56.829Z,1001.09
2019-05-18T08:07:56.833Z,1001.05
2019-05-18T08:08:56.856Z,1001.03
2019-05-18T08:09:56.869Z,1001.04
2019-05-18T08:10:56.898Z,1001.05
2019-05-18T08:11:58.261Z,1001.07
2019-05-18T08:12:56.902Z,1001.05
2019-05-18T08:13:56.919Z,1001.07
2019-05-18T08:14:57.249Z,1001.09
2019-05-18T08:15:57.097Z,1001.07
2019-05-18T08:18:58.210Z,1001.11
2019-05-18T08:19:57.003Z,1001.09
2019-05-18T08:20:57.331Z,1001.08
2019-05-18T08:21:57.037Z,1001.05
2019-05-18T08:22:57.321Z,1001.07
2019-05-18T08:23:57.167Z,1001.04
2019-05-18T08:24:57.373Z,1001.07
2019-05-18T08:26:57.222Z,1001.13
2019-05-18T08:27:57.125Z,1001.08
2019-05-18T08:28:57.165Z,1001.06
2019-05-18T08:29:57.149Z,1001.02
2019-05-18T08:30:57.474Z,1001.03
2019-05-18T08:31:57.279Z,1001.06
2019-05-18T08:32:57.205Z,1001.03
2019-05-18T08:33:57.204Z,1001.05
2019-05-18T08:34:57.220Z,1001.04
2019-05-18T08:35:57.456Z,1001.05
2019-05-18T08:36:57.269Z,1001.05
2019-05-18T08:37:57.285Z,1001.08
2019-05-18T08:38:57.360Z,1001.05
2019-05-18T08:39:57.308Z,1001.09
2019-05-18T08:40:57.335Z,1001.06
2019-05-18T08:42:57.346Z,1001.06
2019-05-18T08:43:57.829Z,1001.02
2019-05-18T08:44:57.415Z,1001.04
2019-05-18T08:45:57.402Z,1000.98
2019-05-18T08:46:57.462Z,1001.01
2019-05-18T08:47:57.447Z,1001.01
2019-05-18T08:48:57.668Z,1001.05
2019-05-18T08:49:57.451Z,1001.07
2019-05-18T08:50:57.673Z,1001.05
2019-05-18T08:52:07.976Z,1001.04
2019-05-18T08:52:57.506Z,1001.02
2019-05-18T08:55:57.765Z,1001.00
2019-05-18T08:56:57.548Z,1001.03
2019-05-18T08:57:57.793Z,1001.05
2019-05-18T08:58:57.578Z,1001.03
2019-05-18T08:59:57.641Z,1001.05
2019-05-18T09:00:57.612Z,1001.05
2019-05-18T09:01:57.617Z,1001.10
2019-05-18T09:02:57.655Z,1001.04
2019-05-18T09:03:57.710Z,1001.03
2019-05-18T09:04:57.797Z,1001.02
2019-05-18T09:05:57.682Z,1001.00
2019-05-18T09:07:57.759Z,1000.95
2019-05-18T09:08:57.722Z,1000.94
2019-05-18T09:09:57.821Z,1000.92
2019-05-18T09:11:57.935Z,1000.95
2019-05-18T09:12:58.924Z,1000.92
2019-05-18T09:14:58.190Z,1000.93
2019-05-18T09:15:58.068Z,1000.96
2019-05-18T09:17:57.859Z,1000.97
2019-05-18T09:18:57.987Z,1000.99
2019-05-18T09:19:59.139Z,1000.98
2019-05-18T09:21:57.980Z,1001.00
2019-05-18T09:22:57.948Z,1001.00
2019-05-18T09:23:57.966Z,1001.02
2019-05-18T09:24:58.009Z,1001.06
2019-05-18T09:25:57.988Z,1001.06
2019-05-18T09:26:58.066Z,1001.04
2019-05-18T09:27:58.102Z,1001.07
2019-05-18T09:28:58.031Z,1001.09
2019-05-18T09:29:58.041Z,1001.09
2019-05-18T09:30:58.052Z,1001.08
2019-05-18T09:31:58.091Z,1001.07
2019-05-18T09:32:58.174Z,1001.04
2019-05-18T09:33:58.096Z,1001.07
2019-05-18T09:34:58.199Z,1001.03
2019-05-18T09:35:58.137Z,1001.04
2019-05-18T09:36:58.149Z,1001.02
2019-05-18T09:37:58.166Z,1001.03
2019-05-18T09:38:58.185Z,1001.01
2019-05-18T09:39:58.322Z,1001.01
2019-05-18T09:40:58.209Z,1001.02
2019-05-18T09:41:58.219Z,1001.05
2019-05-18T09:42:58.241Z,1001.02
2019-05-18T09:43:58.250Z,1001.07
2019-05-18T09:44:58.260Z,1001.05
2019-05-18T09:45:58.501Z,1001.03
2019-05-18T09:46:58.400Z,1001.06
2019-05-18T09:47:58.361Z,1001.06
2019-05-18T09:48:58.331Z,1001.09
2019-05-18T09:49:58.346Z,1001.04
2019-05-18T09:50:58.398Z,1001.07
2019-05-18T09:51:58.667Z,1001.12
2019-05-18T09:52:58.378Z,1001.15
2019-05-18T09:53:58.444Z,1001.11
2019-05-18T09:54:58.409Z,1001.09
2019-05-18T09:55:58.439Z,1001.10
2019-05-18T09:56:58.488Z,1001.08
2019-05-18T09:57:58.462Z,1001.03
2019-05-18T09:58:58.478Z,1001.10
2019-05-18T09:59:58.486Z,1001.06
2019-05-18T10:00:59.182Z,1001.07
2019-05-18T10:01:58.524Z,1001.02
2019-05-18T10:02:58.533Z,1001.09
2019-05-18T10:03:58.600Z,1001.07
2019-05-18T10:04:58.572Z,1001.06
2019-05-18T10:05:58.591Z,1001.05
2019-05-18T10:06:58.768Z,1001.04
2019-05-18T10:07:58.757Z,1001.08
2019-05-18T10:08:58.660Z,1001.08
2019-05-18T10:09:58.643Z,1001.02
2019-05-18T10:10:58.656Z,1001.02
2019-05-18T10:11:58.729Z,1001.00
2019-05-18T10:12:58.684Z,1000.99
2019-05-18T10:13:58.692Z,1001.01
2019-05-18T10:14:58.710Z,1001.01
2019-05-18T10:15:58.793Z,1000.98
2019-05-18T10:16:58.738Z,1000.98
2019-05-18T10:17:58.758Z,1001.01
2019-05-18T10:18:58.815Z,1001.02
2019-05-18T10:19:58.794Z,1000.97
2019-05-18T10:20:58.835Z,1001.01
2019-05-18T10:21:58.822Z,1001.03
2019-05-18T10:23:11.732Z,1001.02
2019-05-18T10:23:59.057Z,1001.02
2019-05-18T10:24:58.883Z,1001.00
2019-05-18T10:25:58.883Z,1001.02
2019-05-18T10:26:58.891Z,1000.98
2019-05-18T10:27:58.922Z,1000.95
2019-05-18T10:28:58.927Z,1000.93
2019-05-18T10:29:58.958Z,1000.98
2019-05-18T10:30:58.963Z,1000.95
2019-05-18T10:31:58.966Z,1000.90
2019-05-18T10:32:58.982Z,1000.95
2019-05-18T10:33:58.998Z,1000.97
2019-05-18T10:34:59.057Z,1001.00
2019-05-18T10:35:59.516Z,1000.97
2019-05-18T10:36:59.081Z,1000.97
2019-05-18T10:37:59.075Z,1000.92
2019-05-18T10:38:59.102Z,1000.96
2019-05-18T10:39:59.136Z,1000.95
2019-05-18T10:40:59.187Z,1000.97
2019-05-18T10:41:59.145Z,1000.99
2019-05-18T10:42:59.143Z,1000.96
2019-05-18T10:43:59.152Z,1000.94
2019-05-18T10:44:59.170Z,1001.01
2019-05-18T10:45:59.477Z,1001.00
2019-05-18T10:47:59.274Z,1000.97
2019-05-18T10:48:59.231Z,1000.99
2019-05-18T10:49:59.251Z,1000.99
2019-05-18T10:50:59.273Z,1000.99
2019-05-18T10:51:59.298Z,1000.97
2019-05-18T10:52:59.294Z,1000.97
2019-05-18T10:53:59.353Z,1001.00
2019-05-18T10:54:59.337Z,1000.99
2019-05-18T10:55:59.334Z,1001.03
2019-05-18T10:56:59.355Z,1000.98
2019-05-18T10:57:59.376Z,1000.97
2019-05-18T10:58:59.389Z,1000.98
2019-05-18T10:59:59.546Z,1000.93
2019-05-18T11:00:59.410Z,1000.94
2019-05-18T11:01:59.437Z,1000.95
2019-05-18T11:02:59.440Z,1000.94
2019-05-18T11:04:59.476Z,1000.94
2019-05-18T11:05:59.487Z,1000.90
2019-05-18T11:06:59.503Z,1000.89
2019-05-18T11:07:59.518Z,1000.90
2019-05-18T11:08:59.532Z,1000.89
2019-05-18T11:09:59.545Z,1000.94
2019-05-18T11:10:59.579Z,1000.88
2019-05-18T11:11:59.590Z,1000.97
2019-05-18T11:12:59.594Z,1000.89
2019-05-18T11:13:59.617Z,1000.85
2019-05-18T11:14:59.623Z,1000.88
2019-05-18T11:15:59.642Z,1000.86
2019-05-18T11:16:59.660Z,1000.91
2019-05-18T11:17:59.882Z,1000.89
2019-05-18T11:18:59.853Z,1000.92
2019-05-18T11:19:59.724Z,1000.88
2019-05-18T11:20:59.768Z,1000.88
2019-05-18T11:21:59.751Z,1000.90
2019-05-18T11:22:59.759Z,1000.88
2019-05-18T11:23:59.792Z,1000.87
2019-05-18T11:25:59.898Z,1000.80
2019-05-18T11:27:59.849Z,1000.80
2019-05-18T11:28:59.869Z,1000.82
2019-05-18T11:30:00.080Z,1000.79
2019-05-18T11:30:59.880Z,1000.74
2019-05-18T11:31:59.905Z,1000.77
2019-05-18T11:32:59.934Z,1000.78
2019-05-18T11:33:59.945Z,1000.78
2019-05-18T11:34:59.948Z,1000.76
2019-05-18T11:35:59.964Z,1000.72
2019-05-18T11:37:03.069Z,1000.73
2019-05-18T11:38:00.079Z,1000.74
2019-05-18T11:39:00.015Z,1000.71
2019-05-18T11:40:00.026Z,1000.74
2019-05-18T11:41:00.043Z,1000.76
2019-05-18T11:42:00.069Z,1000.68
2019-05-18T11:45:00.126Z,1000.70
2019-05-18T11:46:00.173Z,1000.73
2019-05-18T11:47:00.143Z,1000.68
2019-05-18T11:48:00.225Z,1000.69
2019-05-18T11:49:00.182Z,1000.74
2019-05-18T11:50:00.201Z,1000.75
2019-05-18T11:51:00.214Z,1000.71
2019-05-18T11:52:00.255Z,1000.74
2019-05-18T11:53:00.642Z,1000.68
2019-05-18T11:54:00.257Z,1000.73
2019-05-18T11:56:00.509Z,1000.68
2019-05-18T11:57:01.405Z,1000.66
2019-05-18T11:58:01.226Z,1000.62
2019-05-18T12:00:00.434Z,1000.61
2019-05-18T12:01:00.602Z,1000.65
2019-05-18T12:02:00.535Z,1000.61
2019-05-18T12:03:00.430Z,1000.64
2019-05-18T12:04:00.464Z,1000.60
2019-05-18T12:05:00.432Z,1000.61
2019-05-18T12:06:00.475Z,1000.60
2019-05-18T12:07:00.473Z,1000.61
2019-05-18T12:08:00.481Z,1000.62
2019-05-18T12:09:00.494Z,1000.61
2019-05-18T12:10:00.524Z,1000.55
2019-05-18T12:11:00.529Z,1000.61
2019-05-18T12:12:00.546Z,1000.62
2019-05-18T12:13:00.629Z,1000.63
2019-05-18T12:14:00.575Z,1000.65
2019-05-18T12:15:00.602Z,1000.63
2019-05-18T12:16:00.846Z,1000.67
2019-05-18T12:17:00.774Z,1000.65
2019-05-18T12:18:00.653Z,1000.67
2019-05-18T12:19:01.117Z,1000.61
2019-05-18T12:20:00.674Z,1000.56
2019-05-18T12:21:00.722Z,1000.53
2019-05-18T12:22:01.254Z,1000.50
2019-05-18T12:23:00.738Z,1000.47
2019-05-18T12:24:14.167Z,1000.52
2019-05-18T12:25:00.800Z,1000.49
2019-05-18T12:26:00.895Z,1000.47
2019-05-18T12:27:00.790Z,1000.50
2019-05-18T12:28:00.860Z,1000.51
2019-05-18T12:29:00.822Z,1000.56
2019-05-18T12:30:00.874Z,1000.53
2019-05-18T12:31:02.276Z,1000.45
2019-05-18T12:32:00.871Z,1000.43
2019-05-18T12:33:00.888Z,1000.42
2019-05-18T12:34:00.960Z,1000.41
2019-05-18T12:35:00.922Z,1000.41
2019-05-18T12:36:00.937Z,1000.39
2019-05-18T12:37:00.978Z,1000.42
2019-05-18T12:38:00.999Z,1000.42
2019-05-18T12:39:01.002Z,1000.44
2019-05-18T12:40:01.017Z,1000.46
2019-05-18T12:41:01.037Z,1000.53
2019-05-18T12:42:01.046Z,1000.53
2019-05-18T12:43:01.061Z,1000.52
2019-05-18T12:44:01.077Z,1000.57
2019-05-18T12:45:01.088Z,1000.55
2019-05-18T12:46:01.185Z,1000.54
2019-05-18T12:47:01.178Z,1000.54
2019-05-18T12:48:01.323Z,1000.58
2019-05-18T12:49:01.251Z,1000.58
2019-05-18T12:50:01.371Z,1000.52
2019-05-18T12:51:01.210Z,1000.59
2019-05-18T12:52:01.221Z,1000.58
2019-05-18T12:53:01.244Z,1000.58
2019-05-18T12:54:01.352Z,1000.61
2019-05-18T12:55:01.285Z,1000.63
2019-05-18T12:56:01.394Z,1000.66
2019-05-18T12:57:01.377Z,1000.63
2019-05-18T12:58:01.351Z,1000.61
2019-05-18T12:59:01.715Z,1000.68
2019-05-18T13:00:01.429Z,1000.68
2019-05-18T13:01:01.408Z,1000.71
2019-05-18T13:03:01.526Z,1000.64
2019-05-18T13:04:01.483Z,1000.66
2019-05-18T13:05:01.499Z,1000.65
2019-05-18T13:06:01.540Z,1000.63
2019-05-18T13:07:01.544Z,1000.63
2019-05-18T13:08:01.636Z,1000.67
2019-05-18T13:09:01.600Z,1000.73
2019-05-18T13:10:01.649Z,1000.76
2019-05-18T13:11:01.640Z,1000.71
2019-05-18T13:13:01.839Z,1000.68
2019-05-18T13:14:01.759Z,1000.69
2019-05-18T13:15:01.770Z,1000.70
2019-05-18T13:16:01.791Z,1000.71
2019-05-18T13:17:01.791Z,1000.72
2019-05-18T13:18:01.802Z,1000.72
2019-05-18T13:19:01.857Z,1000.75
2019-05-18T13:20:01.908Z,1000.71
2019-05-18T13:21:01.980Z,1000.73
2019-05-18T13:22:02.103Z,1000.68
2019-05-18T13:23:01.969Z,1000.72
2019-05-18T13:24:01.984Z,1000.72
2019-05-18T13:25:01.988Z,1000.69
2019-05-18T13:26:02.062Z,1000.68
2019-05-18T13:27:02.030Z,1000.66
2019-05-18T13:28:02.061Z,1000.67
2019-05-18T13:29:02.218Z,1000.67
2019-05-18T13:30:02.246Z,1000.67
2019-05-18T13:31:02.132Z,1000.46
2019-05-18T13:32:02.233Z,1000.53
2019-05-18T13:33:02.194Z,1000.61
2019-05-18T13:34:02.202Z,1000.64
2019-05-18T13:35:02.329Z,1000.43
2019-05-18T13:36:02.259Z,1000.40
2019-05-18T13:37:02.291Z,1000.38
2019-05-18T13:38:02.302Z,1000.32
2019-05-18T13:39:02.330Z,1000.35